createdAt,value
2018-07-06T00:02:35.076Z,19.82
2018-07-06T00:05:15.285Z,19.70
2018-07-06T00:07:55.184Z,19.75
2018-07-06T00:10:35.295Z,19.79
2018-07-06T00:13:15.004Z,19.74
2018-07-06T00:15:54.970Z,19.78
2018-07-06T00:18:35.983Z,19.82
2018-07-06T00:21:16.608Z,19.78
2018-07-06T00:23:56.445Z,19.82
2018-07-06T00:26:36.175Z,19.82
2018-07-06T00:29:16.724Z,19.58
2018-07-06T00:31:56.933Z,19.63
2018-07-06T00:34:36.641Z,19.65
2018-07-06T00:37:17.014Z,19.71
2018-07-06T00:39:56.718Z,19.69
2018-07-06T00:42:36.430Z,19.66
2018-07-06T00:45:16.892Z,19.67
2018-07-06T00:47:56.942Z,19.73
2018-07-06T00:50:37.368Z,19.78
2018-07-06T00:53:17.139Z,19.81
2018-07-06T00:55:57.222Z,19.79
2018-07-06T00:58:37.996Z,19.67
2018-07-06T01:01:18.454Z,19.74
2018-07-06T01:03:58.387Z,19.70
2018-07-06T01:06:38.311Z,19.64
2018-07-06T01:09:18.418Z,19.67
2018-07-06T01:12:02.395Z,19.72
2018-07-06T01:14:42.277Z,19.80
2018-07-06T01:17:22.200Z,19.84
2018-07-06T01:20:02.148Z,19.84
2018-07-06T01:22:42.685Z,19.43
2018-07-06T01:25:22.491Z,19.70
2018-07-06T01:28:02.291Z,19.73
2018-07-06T01:30:42.039Z,19.77
2018-07-06T01:33:21.738Z,19.41
2018-07-06T01:36:01.461Z,19.30
2018-07-06T01:38:41.207Z,19.29
2018-07-06T01:41:21.123Z,19.46
2018-07-06T01:44:01.829Z,19.53
2018-07-06T01:46:41.638Z,19.51
2018-07-06T01:49:21.230Z,19.51
2018-07-06T01:52:00.893Z,19.55
2018-07-06T01:54:40.599Z,19.57
2018-07-06T01:57:21.156Z,19.38
2018-07-06T02:00:00.811Z,19.39
2018-07-06T02:02:40.822Z,19.52
2018-07-06T02:05:20.799Z,19.55
2018-07-06T02:08:01.425Z,19.08
2018-07-06T02:10:41.255Z,19.23
2018-07-06T02:13:20.807Z,19.33
2018-07-06T02:16:00.706Z,19.37
2018-07-06T02:18:40.835Z,19.41
2018-07-06T02:21:20.993Z,19.41
2018-07-06T02:24:00.779Z,19.39
2018-07-06T02:26:40.558Z,19.21
2018-07-06T02:29:20.740Z,19.27
2018-07-06T02:32:00.518Z,19.29
2018-07-06T02:34:41.038Z,19.33
2018-07-06T02:37:21.369Z,19.41
2018-07-06T02:40:01.880Z,19.46
2018-07-06T02:42:42.397Z,19.51
2018-07-06T02:45:22.160Z,19.46
2018-07-06T02:48:02.034Z,19.44
2018-07-06T02:50:41.732Z,19.46
2018-07-06T02:53:21.540Z,19.46
2018-07-06T02:56:01.323Z,19.23
2018-07-06T02:58:41.316Z,19.19
2018-07-06T03:01:21.198Z,19.18
2018-07-06T03:04:01.603Z,19.31
2018-07-06T03:06:41.585Z,19.37
2018-07-06T03:09:21.550Z,19.40
2018-07-06T03:12:01.546Z,19.41
2018-07-06T03:14:41.393Z,19.40
2018-07-06T03:17:22.527Z,19.40
2018-07-06T03:20:02.273Z,19.38
2018-07-06T03:22:41.988Z,19.39
2018-07-06T03:25:21.610Z,19.40
2018-07-06T03:28:01.284Z,19.44
2018-07-06T03:30:41.154Z,19.47
2018-07-06T03:33:20.928Z,19.45
2018-07-06T03:36:00.705Z,19.48
2018-07-06T03:38:41.314Z,19.55
2018-07-06T03:41:21.163Z,19.57
2018-07-06T03:44:01.097Z,19.53
2018-07-06T03:46:40.915Z,19.51
2018-07-06T03:49:20.488Z,19.37
2018-07-06T03:52:00.253Z,19.31
2018-07-06T03:54:39.858Z,19.35
2018-07-06T03:57:19.852Z,19.40
2018-07-06T03:59:59.669Z,19.33
2018-07-06T04:02:40.243Z,19.32
2018-07-06T04:05:20.036Z,19.35
2018-07-06T04:08:00.723Z,19.33
2018-07-06T04:10:40.474Z,19.27
2018-07-06T04:13:20.424Z,19.18
2018-07-06T04:16:00.285Z,19.06
2018-07-06T04:18:39.871Z,19.07
2018-07-06T04:21:19.575Z,19.14
2018-07-06T04:23:59.481Z,19.25
2018-07-06T04:26:39.181Z,19.25
2018-07-06T04:29:19.676Z,19.26
2018-07-06T04:32:00.211Z,19.23
2018-07-06T04:34:40.027Z,19.27
2018-07-06T04:37:19.784Z,19.33
2018-07-06T04:39:59.312Z,19.37
2018-07-06T04:42:39.007Z,19.42
2018-07-06T04:45:18.742Z,19.42
2018-07-06T04:47:59.030Z,19.43
2018-07-06T04:50:39.293Z,19.48
2018-07-06T04:53:19.102Z,19.44
2018-07-06T04:55:58.686Z,19.39
2018-07-06T04:58:38.936Z,19.34
2018-07-06T05:01:18.686Z,19.21
2018-07-06T05:03:58.329Z,19.25
2018-07-06T05:06:38.910Z,19.18
2018-07-06T05:09:18.574Z,19.11
2018-07-06T05:11:58.291Z,19.18
2018-07-06T05:14:38.738Z,19.06
2018-07-06T05:17:18.662Z,19.07
2018-07-06T05:19:58.401Z,19.20
2018-07-06T05:22:38.193Z,19.29
2018-07-06T05:25:17.711Z,19.30
2018-07-06T05:27:57.404Z,19.27
2018-07-06T05:30:38.106Z,19.34
2018-07-06T05:33:17.855Z,19.39
2018-07-06T05:35:57.506Z,19.26
2018-07-06T05:38:37.278Z,19.23
2018-07-06T05:41:17.013Z,19.17
2018-07-06T05:43:56.901Z,19.21
2018-07-06T05:46:36.553Z,19.26
2018-07-06T05:49:16.396Z,19.28
2018-07-06T05:51:56.058Z,19.23
2018-07-06T05:54:35.756Z,19.32
2018-07-06T05:57:15.507Z,19.41
2018-07-06T05:59:55.210Z,19.35
2018-07-06T06:02:34.909Z,19.26
2018-07-06T06:05:14.796Z,19.21
2018-07-06T06:07:42.078Z,19.11
2018-07-06T06:10:10.919Z,19.21
2018-07-06T06:12:39.484Z,19.28
2018-07-06T06:15:08.182Z,19.32
2018-07-06T06:17:36.846Z,19.34
2018-07-06T06:20:05.552Z,19.33
2018-07-06T06:22:34.158Z,19.38
2018-07-06T06:25:02.756Z,19.29
2018-07-06T06:27:31.832Z,19.12
2018-07-06T06:30:00.639Z,19.08
2018-07-06T06:32:29.356Z,19.16
2018-07-06T06:34:57.959Z,19.22
2018-07-06T06:37:26.789Z,19.34
2018-07-06T06:39:55.511Z,18.52
2018-07-06T06:42:24.201Z,19.38
2018-07-06T06:44:53.847Z,19.23
2018-07-06T06:47:22.639Z,19.08
2018-07-06T06:49:51.257Z,18.94
2018-07-06T06:52:20.182Z,18.98
2018-07-06T06:54:48.816Z,19.04
2018-07-06T06:57:17.615Z,19.09
2018-07-06T06:59:46.313Z,19.26
2018-07-06T07:02:15.056Z,19.34
2018-07-06T07:04:43.805Z,19.36
2018-07-06T07:07:12.494Z,19.41
2018-07-06T07:09:41.191Z,19.57
2018-07-06T07:12:10.421Z,19.63
2018-07-06T07:14:39.135Z,19.61
2018-07-06T07:17:07.813Z,19.71
2018-07-06T07:19:36.460Z,19.81
2018-07-06T07:22:05.059Z,19.50
2018-07-06T07:24:33.733Z,19.49
2018-07-06T07:27:02.393Z,19.63
2018-07-06T07:29:31.726Z,19.78
2018-07-06T07:32:00.573Z,19.74
2018-07-06T07:34:29.529Z,19.85
2018-07-06T07:36:58.323Z,20.02
2018-07-06T07:39:26.954Z,20.01
2018-07-06T07:41:56.857Z,19.84
2018-07-06T07:44:25.432Z,19.93
2018-07-06T07:46:54.388Z,19.91
2018-07-06T07:49:23.061Z,19.91
2018-07-06T07:52:08.291Z,20.08
2018-07-06T07:54:56.386Z,20.07
2018-07-06T07:57:25.128Z,20.08
2018-07-06T07:59:54.840Z,20.13
2018-07-06T08:02:23.686Z,20.29
2018-07-06T08:04:53.692Z,20.36
2018-07-06T08:07:23.374Z,20.23
2018-07-06T08:09:51.963Z,20.32
2018-07-06T08:12:20.577Z,20.57
2018-07-06T08:14:49.557Z,20.55
2018-07-06T08:17:18.156Z,20.74
2018-07-06T08:19:46.821Z,20.82
2018-07-06T08:22:15.490Z,20.90
2018-07-06T08:24:44.116Z,20.90
2018-07-06T08:27:12.689Z,21.06
2018-07-06T08:29:41.358Z,20.92
2018-07-06T08:32:09.966Z,20.87
2018-07-06T08:34:49.710Z,20.69
2018-07-06T08:37:30.979Z,20.62
2018-07-06T08:40:00.330Z,20.39
2018-07-06T08:42:30.857Z,20.61
2018-07-06T08:45:00.210Z,20.90
2018-07-06T08:47:29.460Z,21.09
2018-07-06T08:49:58.835Z,20.99
2018-07-06T08:52:27.827Z,21.00
2018-07-06T08:54:56.487Z,21.35
2018-07-06T08:57:26.361Z,21.44
2018-07-06T08:59:55.271Z,21.43
2018-07-06T09:02:25.026Z,21.61
2018-07-06T09:04:54.597Z,22.03
2018-07-06T09:07:24.068Z,22.04
2018-07-06T09:09:53.153Z,22.05
2018-07-06T09:12:21.815Z,22.04
2018-07-06T09:14:51.495Z,22.13
2018-07-06T09:17:20.759Z,22.11
2018-07-06T09:19:49.978Z,22.58
2018-07-06T09:22:18.878Z,22.91
2018-07-06T09:24:48.717Z,22.95
2018-07-06T09:27:17.496Z,23.39
2018-07-06T09:29:46.098Z,23.82
2018-07-06T09:32:14.650Z,24.05
2018-07-06T09:34:43.581Z,23.38
2018-07-06T09:37:12.355Z,23.14
2018-07-06T09:39:41.931Z,22.82
2018-07-06T09:42:10.644Z,23.11
2018-07-06T09:44:39.401Z,23.18
2018-07-06T09:47:08.968Z,23.40
2018-07-06T09:49:37.685Z,23.83
2018-07-06T09:52:06.353Z,23.55
2018-07-06T09:54:35.094Z,23.89
2018-07-06T09:57:03.752Z,24.07
2018-07-06T09:59:33.690Z,24.03
2018-07-06T10:02:02.387Z,23.74
2018-07-06T10:04:31.580Z,23.76
2018-07-06T10:07:00.258Z,24.24
2018-07-06T10:09:29.059Z,24.06
2018-07-06T10:11:57.815Z,24.14
2018-07-06T10:14:26.414Z,24.29
2018-07-06T10:16:55.151Z,24.43
2018-07-06T10:19:24.525Z,24.32
2018-07-06T10:21:53.158Z,24.52
2018-07-06T10:24:21.811Z,24.62
2018-07-06T10:26:50.550Z,24.38
2018-07-06T10:29:36.557Z,23.92
2018-07-06T10:32:21.927Z,24.54
2018-07-06T10:34:50.683Z,25.15
2018-07-06T10:37:19.984Z,25.43
2018-07-06T10:39:49.266Z,24.99
2018-07-06T10:42:17.896Z,24.48
2018-07-06T10:44:47.186Z,24.81
2018-07-06T10:47:15.900Z,24.86
2018-07-06T10:49:44.756Z,25.07
2018-07-06T10:52:14.746Z,24.97
2018-07-06T10:54:44.025Z,25.15
2018-07-06T10:57:12.862Z,24.99
2018-07-06T10:59:41.524Z,25.27
2018-07-06T11:02:10.268Z,24.90
2018-07-06T11:04:39.119Z,24.92
2018-07-06T11:07:08.372Z,25.01
2018-07-06T11:12:20.049Z,24.51
2018-07-06T11:14:49.109Z,24.92
2018-07-06T11:17:17.761Z,24.98
2018-07-06T11:19:46.513Z,25.47
2018-07-06T11:22:15.346Z,25.50
2018-07-06T11:24:44.065Z,25.81
2018-07-06T11:27:12.708Z,25.31
2018-07-06T11:29:41.339Z,25.03
2018-07-06T11:32:10.776Z,25.17
2018-07-06T11:34:40.137Z,25.09
2018-07-06T11:37:09.372Z,25.19
2018-07-06T11:39:38.104Z,25.13
2018-07-06T11:42:06.927Z,25.16
2018-07-06T11:44:37.196Z,25.17
2018-07-06T11:47:07.573Z,25.16
2018-07-06T11:49:36.252Z,25.27
2018-07-06T11:52:05.399Z,25.37
2018-07-06T11:54:34.718Z,25.56
2018-07-06T11:57:04.632Z,25.58
2018-07-06T11:59:33.310Z,25.54
2018-07-06T12:02:02.056Z,25.51
2018-07-06T12:04:30.813Z,25.27
2018-07-06T12:06:59.579Z,24.91
2018-07-06T12:09:28.511Z,24.60
2018-07-06T12:11:57.577Z,24.41
2018-07-06T12:14:26.927Z,24.31
2018-07-06T12:16:55.539Z,24.30
2018-07-06T12:19:24.875Z,24.36
2018-07-06T12:22:05.676Z,24.35
2018-07-06T12:24:42.355Z,24.55
2018-07-06T12:27:27.916Z,24.51
2018-07-06T12:30:01.252Z,24.60
2018-07-06T12:32:30.880Z,24.55
2018-07-06T12:35:05.503Z,24.50
2018-07-06T12:37:34.142Z,24.36
2018-07-06T12:40:03.536Z,23.91
2018-07-06T12:42:34.706Z,23.71
2018-07-06T12:45:04.250Z,23.58
2018-07-06T12:47:33.479Z,23.35
2018-07-06T12:50:02.225Z,23.14
2018-07-06T12:52:30.960Z,23.02
2018-07-06T12:54:59.675Z,23.02
2018-07-06T12:57:31.182Z,23.49
2018-07-06T13:00:01.006Z,25.06
2018-07-06T13:02:32.299Z,26.82
2018-07-06T13:05:00.982Z,28.29
2018-07-06T13:07:30.463Z,29.32
2018-07-06T13:09:59.068Z,30.23
2018-07-06T13:12:27.665Z,31.01
2018-07-06T13:14:56.343Z,31.55
2018-07-06T13:17:25.773Z,30.88
2018-07-06T13:19:54.575Z,32.22
2018-07-06T13:22:23.304Z,32.04
2018-07-06T13:24:52.402Z,32.47
2018-07-06T13:27:21.898Z,32.04
2018-07-06T13:29:50.728Z,32.69
2018-07-06T13:32:20.342Z,33.16
2018-07-06T13:34:49.285Z,33.21
2018-07-06T13:37:18.074Z,33.43
2018-07-06T13:39:46.723Z,33.79
2018-07-06T13:42:15.613Z,33.62
2018-07-06T13:44:44.407Z,33.60
2018-07-06T13:47:13.100Z,33.08
2018-07-06T13:49:41.940Z,33.12
2018-07-06T13:52:10.620Z,33.11
2018-07-06T13:54:39.348Z,33.12
2018-07-06T13:57:10.171Z,31.84
2018-07-06T13:59:40.174Z,31.06
2018-07-06T14:02:09.236Z,30.52
2018-07-06T14:04:38.881Z,30.00
2018-07-06T14:07:07.809Z,29.92
2018-07-06T14:09:36.739Z,30.30
2018-07-06T14:12:05.389Z,30.87
2018-07-06T14:14:35.331Z,30.46
2018-07-06T14:17:04.149Z,29.60
2018-07-06T14:19:33.434Z,28.68
2018-07-06T14:22:02.200Z,28.36
2018-07-06T14:24:30.959Z,28.03
2018-07-06T14:26:59.929Z,27.87
2018-07-06T14:29:30.274Z,27.64
2018-07-06T14:32:03.137Z,27.53
2018-07-06T14:34:32.572Z,27.43
2018-07-06T14:37:02.465Z,27.27
2018-07-06T14:39:31.357Z,27.01
2018-07-06T14:42:01.390Z,26.96
2018-07-06T14:44:30.049Z,26.83
2018-07-06T14:46:58.899Z,26.88
2018-07-06T14:49:27.537Z,26.83
2018-07-06T14:51:57.484Z,27.18
2018-07-06T14:54:28.053Z,27.68
2018-07-06T14:56:56.830Z,27.95
2018-07-06T14:59:27.134Z,27.88
2018-07-06T15:01:56.531Z,27.57
2018-07-06T15:04:26.621Z,27.41
2018-07-06T15:06:55.753Z,27.14
2018-07-06T15:09:25.472Z,26.88
2018-07-06T15:11:54.242Z,26.88
2018-07-06T15:14:23.001Z,26.69
2018-07-06T15:16:51.712Z,26.98
2018-07-06T15:19:20.436Z,27.25
2018-07-06T15:21:49.124Z,27.45
2018-07-06T15:24:17.798Z,27.56
2018-07-06T15:26:46.520Z,27.51
2018-07-06T15:29:15.454Z,27.34
2018-07-06T15:31:45.235Z,27.44
2018-07-06T15:34:13.941Z,27.39
2018-07-06T15:36:42.732Z,27.10
2018-07-06T15:39:11.452Z,27.37
2018-07-06T15:41:40.201Z,27.36
2018-07-06T15:44:10.106Z,27.24
2018-07-06T15:46:39.056Z,26.95
2018-07-06T15:49:07.762Z,27.04
2018-07-06T15:51:37.451Z,27.02
2018-07-06T15:54:06.139Z,27.04
2018-07-06T15:56:34.860Z,27.02
2018-07-06T15:59:03.498Z,27.03
2018-07-06T16:01:32.217Z,27.08
2018-07-06T16:04:01.610Z,27.13
2018-07-06T16:06:31.258Z,27.01
2018-07-06T16:08:59.939Z,26.91
2018-07-06T16:11:28.702Z,26.76
2018-07-06T16:13:57.271Z,26.69
2018-07-06T16:16:25.980Z,26.63
2018-07-06T16:18:56.329Z,26.51
2018-07-06T16:21:25.406Z,26.50
2018-07-06T16:23:54.596Z,26.66
2018-07-06T16:26:24.211Z,26.48
2018-07-06T16:28:54.286Z,26.57
2018-07-06T16:31:22.881Z,26.49
2018-07-06T16:33:51.577Z,26.26
2018-07-06T16:36:20.211Z,26.12
2018-07-06T16:38:48.902Z,26.08
2018-07-06T16:41:17.638Z,25.88
2018-07-06T16:43:46.371Z,25.38
2018-07-06T16:46:15.329Z,25.30
2018-07-06T16:48:44.000Z,25.42
2018-07-06T16:51:12.671Z,25.46
2018-07-06T16:53:41.475Z,25.41
2018-07-06T16:56:11.541Z,25.37
2018-07-06T16:58:40.251Z,25.70
2018-07-06T17:01:09.168Z,25.52
2018-07-06T17:03:37.991Z,25.51
2018-07-06T17:06:06.721Z,25.21
2018-07-06T17:08:36.106Z,25.33
2018-07-06T17:11:04.889Z,25.39
2018-07-06T17:13:33.515Z,25.63
2018-07-06T17:16:02.204Z,25.49
2018-07-06T17:18:32.257Z,25.71
2018-07-06T17:21:03.178Z,25.89
2018-07-06T17:23:32.462Z,26.00
2018-07-06T17:26:01.142Z,26.13
2018-07-06T17:28:30.263Z,26.12
2018-07-06T17:31:09.024Z,26.21
2018-07-06T17:33:38.102Z,26.13
2018-07-06T17:36:07.557Z,26.23
2018-07-06T17:38:38.794Z,26.31
2018-07-06T17:41:07.473Z,26.20
2018-07-06T17:43:36.190Z,26.16
2018-07-06T17:46:05.925Z,25.92
2018-07-06T17:48:34.715Z,25.94
2018-07-06T17:51:04.445Z,26.00
2018-07-06T17:53:34.017Z,25.98
2018-07-06T17:56:03.557Z,25.99
2018-07-06T17:58:32.432Z,25.25
2018-07-06T18:01:01.266Z,25.48
2018-07-06T18:03:30.040Z,25.42
2018-07-06T18:05:59.564Z,25.22
2018-07-06T18:08:28.209Z,25.30
2018-07-06T18:10:56.859Z,25.18
2018-07-06T18:13:26.366Z,24.82
2018-07-06T18:15:56.191Z,24.99
2018-07-06T18:18:24.850Z,25.28
2018-07-06T18:20:53.940Z,25.25
2018-07-06T18:23:22.684Z,25.22
2018-07-06T18:25:51.444Z,25.05
2018-07-06T18:28:20.135Z,25.09
2018-07-06T18:30:48.918Z,24.96
2018-07-06T18:33:18.542Z,24.95
2018-07-06T18:35:47.656Z,24.89
2018-07-06T18:38:16.326Z,24.49
2018-07-06T18:40:45.168Z,24.47
2018-07-06T18:43:14.073Z,24.39
2018-07-06T18:45:42.905Z,24.45
2018-07-06T18:48:11.612Z,24.51
2018-07-06T18:50:40.669Z,24.17
2018-07-06T18:53:10.010Z,24.26
2018-07-06T18:55:39.191Z,24.21
2018-07-06T18:58:08.685Z,24.11
2018-07-06T19:00:37.440Z,24.11
2018-07-06T19:03:06.254Z,24.13
2018-07-06T19:05:35.057Z,24.12
2018-07-06T19:08:03.846Z,24.05
2018-07-06T19:10:32.555Z,24.05
2018-07-06T19:13:01.614Z,24.05
2018-07-06T19:15:30.731Z,23.63
2018-07-06T19:17:59.395Z,23.68
2018-07-06T19:20:28.122Z,22.78
2018-07-06T19:22:56.857Z,23.20
2018-07-06T19:25:25.687Z,23.00
2018-07-06T19:27:55.383Z,22.81
2018-07-06T19:30:24.085Z,22.53
2018-07-06T19:32:52.958Z,22.42
2018-07-06T19:35:21.707Z,22.34
2018-07-06T19:37:50.542Z,22.37
2018-07-06T19:40:19.400Z,22.46
2018-07-06T19:42:49.206Z,22.23
2018-07-06T19:45:17.921Z,22.31
2018-07-06T19:47:46.581Z,22.21
2018-07-06T19:50:15.979Z,22.23
2018-07-06T19:52:48.386Z,22.05
2018-07-06T19:55:18.462Z,21.86
2018-07-06T19:57:47.243Z,21.82
2018-07-06T20:00:17.065Z,21.87
2018-07-06T20:02:45.783Z,21.86
2018-07-06T20:05:15.118Z,21.94
2018-07-06T20:07:44.021Z,21.84
2018-07-06T20:10:12.731Z,21.97
2018-07-06T20:12:41.789Z,21.93
2018-07-06T20:15:10.535Z,21.91
2018-07-06T20:17:39.255Z,21.98
2018-07-06T20:20:08.906Z,21.79
2018-07-06T20:22:37.563Z,21.79
2018-07-06T20:25:06.645Z,21.99
2018-07-06T20:27:35.305Z,22.05
2018-07-06T20:30:04.097Z,22.11
2018-07-06T20:32:32.746Z,22.01
2018-07-06T20:35:02.361Z,21.91
2018-07-06T20:37:31.072Z,21.66
2018-07-06T20:39:59.772Z,21.63
2018-07-06T20:42:28.524Z,21.80
2018-07-06T20:44:57.597Z,21.86
2018-07-06T20:47:26.499Z,21.88
2018-07-06T20:49:55.281Z,21.91
2018-07-06T20:52:24.005Z,21.94
2018-07-06T20:54:52.729Z,21.62
2018-07-06T20:57:21.399Z,21.37
2018-07-06T20:59:50.143Z,21.29
2018-07-06T21:02:18.834Z,21.26
2018-07-06T21:04:47.491Z,21.28
2018-07-06T21:07:16.817Z,21.20
2018-07-06T21:09:46.098Z,21.17
2018-07-06T21:12:15.448Z,21.17
2018-07-06T21:14:45.599Z,21.10
2018-07-06T21:17:15.030Z,21.15
2018-07-06T21:19:43.977Z,21.20
2018-07-06T21:22:12.899Z,21.15
2018-07-06T21:24:41.522Z,21.17
2018-07-06T21:27:10.399Z,20.85
2018-07-06T21:29:39.709Z,21.16
2018-07-06T21:32:09.225Z,21.10
2018-07-06T21:34:38.530Z,21.11
2018-07-06T21:37:08.019Z,20.88
2018-07-06T21:39:37.303Z,20.97
2018-07-06T21:42:06.122Z,20.91
2018-07-06T21:44:34.951Z,20.93
2018-07-06T21:47:04.813Z,20.99
2018-07-06T21:49:33.523Z,21.02
2018-07-06T21:52:02.331Z,21.06
2018-07-06T21:54:31.887Z,21.03
2018-07-06T21:57:01.647Z,21.00
2018-07-06T21:59:31.009Z,20.96
2018-07-06T22:02:00.938Z,20.97
2018-07-06T22:04:29.941Z,20.97
2018-07-06T22:06:58.636Z,20.90
2018-07-06T22:09:27.386Z,20.84
2018-07-06T22:11:56.759Z,20.76
2018-07-06T22:14:27.026Z,20.77
2018-07-06T22:16:56.143Z,20.75
2018-07-06T22:19:26.160Z,20.76
2018-07-06T22:21:55.669Z,20.72
2018-07-06T22:24:24.885Z,20.55
2018-07-06T22:26:54.211Z,20.43
2018-07-06T22:29:22.968Z,20.34
2018-07-06T22:31:52.017Z,20.25
2018-07-06T22:34:20.788Z,20.30
2018-07-06T22:36:49.430Z,20.26
2018-07-06T22:39:18.056Z,20.22
2018-07-06T22:41:46.730Z,20.18
2018-07-06T22:44:15.353Z,20.10
2018-07-06T22:46:44.809Z,19.99
2018-07-06T22:49:14.711Z,19.97
2018-07-06T22:51:45.532Z,20.01
2018-07-06T22:54:15.025Z,19.96
2018-07-06T22:56:44.330Z,19.73
2018-07-06T22:59:12.943Z,19.70
2018-07-06T23:01:42.834Z,19.80
2018-07-06T23:04:12.374Z,19.81
2018-07-06T23:06:41.405Z,19.71
2018-07-06T23:09:10.030Z,19.74
2018-07-06T23:11:38.866Z,19.67
2018-07-06T23:14:07.828Z,19.57
2018-07-06T23:16:36.480Z,19.50
2018-07-06T23:19:05.836Z,19.61
2018-07-06T23:21:35.247Z,19.63
2018-07-06T23:24:05.128Z,19.61
2018-07-06T23:26:35.306Z,19.62
2018-07-06T23:29:04.074Z,19.60
2018-07-06T23:31:33.364Z,19.56
2018-07-06T23:34:02.833Z,19.55
2018-07-06T23:36:31.517Z,19.47
2018-07-06T23:39:00.125Z,19.48
2018-07-06T23:41:29.206Z,19.51
2018-07-06T23:43:59.355Z,19.55
2018-07-06T23:46:29.620Z,19.46
2018-07-06T23:48:58.858Z,19.40
2018-07-06T23:51:28.196Z,19.42
2018-07-06T23:53:57.552Z,19.36
2018-07-06T23:56:26.174Z,19.28
2018-07-06T23:58:54.792Z,19.22
